sensor_id;sensor_type;location;lat;lon;timestamp;P1;durP1;ratioP1;P2;durP2;ratioP2
69126;SDS011;56688;50.234;19.292;2023-11-21T00:00:14;8.70;;;4.90;;
69126;SDS011;56688;50.234;19.292;2023-11-21T00:02:43;8.40;;;4.80;;
69126;SDS011;56688;50.234;19.292;2023-11-21T00:05:13;8.10;;;4.90;;
69126;SDS011;56688;50.234;19.292;2023-11-21T00:07:41;9.20;;;5.30;;
69126;SDS011;56688;50.234;19.292;2023-11-21T00:10:09;9.50;;;5.50;;
69126;SDS011;56688;50.234;19.292;2023-11-21T00:12:37;7.90;;;5.00;;
69126;SDS011;56688;50.234;19.292;2023-11-21T00:15:05;10.60;;;5.80;;
69126;SDS011;56688;50.234;19.292;2023-11-21T00:17:32;10.70;;;5.60;;
69126;SDS011;56688;50.234;19.292;2023-11-21T00:19:59;7.90;;;5.00;;
69126;SDS011;56688;50.234;19.292;2023-11-21T00:22:26;9.20;;;5.20;;
69126;SDS011;56688;50.234;19.292;2023-11-21T00:24:53;8.40;;;6.10;;
69126;SDS011;56688;50.234;19.292;2023-11-21T00:27:20;11.10;;;5.90;;
69126;SDS011;56688;50.234;19.292;2023-11-21T00:29:47;12.70;;;6.40;;
69126;SDS011;56688;50.234;19.292;2023-11-21T00:32:14;9.70;;;6.20;;
69126;SDS011;56688;50.234;19.292;2023-11-21T00:34:41;10.20;;;6.20;;
69126;SDS011;56688;50.234;19.292;2023-11-21T00:37:09;10.10;;;5.50;;
69126;SDS011;56688;50.234;19.292;2023-11-21T00:39:36;10.40;;;5.80;;
69126;SDS011;56688;50.234;19.292;2023-11-21T00:42:03;6.50;;;4.60;;
69126;SDS011;56688;50.234;19.292;2023-11-21T00:44:31;8.70;;;5.30;;
69126;SDS011;56688;50.234;19.292;2023-11-21T00:46:58;8.10;;;4.90;;
69126;SDS011;56688;50.234;19.292;2023-11-21T00:49:25;8.40;;;5.20;;
69126;SDS011;56688;50.234;19.292;2023-11-21T00:51:52;8.90;;;4.70;;
69126;SDS011;56688;50.234;19.292;2023-11-21T00:54:19;9.50;;;4.60;;
69126;SDS011;56688;50.234;19.292;2023-11-21T00:56:46;8.90;;;3.70;;
69126;SDS011;56688;50.234;19.292;2023-11-21T00:59:14;7.90;;;4.50;;
69126;SDS011;56688;50.234;19.292;2023-11-21T01:01:41;8.30;;;4.40;;
69126;SDS011;56688;50.234;19.292;2023-11-21T01:04:08;7.40;;;4.80;;
69126;SDS011;56688;50.234;19.292;2023-11-21T01:06:35;8.50;;;5.30;;
69126;SDS011;56688;50.234;19.292;2023-11-21T01:09:02;7.90;;;5.30;;
69126;SDS011;56688;50.234;19.292;2023-11-21T01:11:35;9.10;;;5.30;;
69126;SDS011;56688;50.234;19.292;2023-11-21T01:14:04;8.10;;;4.60;;
69126;SDS011;56688;50.234;19.292;2023-11-21T01:16:31;9.20;;;5.00;;
69126;SDS011;56688;50.234;19.292;2023-11-21T01:19:00;8.60;;;5.40;;
69126;SDS011;56688;50.234;19.292;2023-11-21T01:21:28;11.60;;;5.70;;
69126;SDS011;56688;50.234;19.292;2023-11-21T01:23:56;8.40;;;4.90;;
69126;SDS011;56688;50.234;19.292;2023-11-21T01:26:23;7.80;;;5.30;;
69126;SDS011;56688;50.234;19.292;2023-11-21T01:28:50;8.40;;;4.80;;
69126;SDS011;56688;50.234;19.292;2023-11-21T01:31:17;7.30;;;4.90;;
69126;SDS011;56688;50.234;19.292;2023-11-21T01:33:45;6.70;;;4.90;;
69126;SDS011;56688;50.234;19.292;2023-11-21T01:36:12;6.80;;;4.30;;
69126;SDS011;56688;50.234;19.292;2023-11-21T01:38:39;9.40;;;5.80;;
69126;SDS011;56688;50.234;19.292;2023-11-21T01:41:06;9.40;;;5.90;;
69126;SDS011;56688;50.234;19.292;2023-11-21T01:43:33;8.30;;;4.70;;
69126;SDS011;56688;50.234;19.292;2023-11-21T01:46:00;7.90;;;4.60;;
69126;SDS011;56688;50.234;19.292;2023-11-21T01:48:27;8.10;;;5.60;;
69126;SDS011;56688;50.234;19.292;2023-11-21T01:50:55;8.80;;;5.50;;
69126;SDS011;56688;50.234;19.292;2023-11-21T01:53:23;11.50;;;6.10;;
69126;SDS011;56688;50.234;19.292;2023-11-21T01:55:52;9.50;;;5.50;;
69126;SDS011;56688;50.234;19.292;2023-11-21T01:58:25;8.50;;;5.00;;
69126;SDS011;56688;50.234;19.292;2023-11-21T02:00:52;7.30;;;4.80;;
69126;SDS011;56688;50.234;19.292;2023-11-21T02:03:21;8.30;;;5.20;;
69126;SDS011;56688;50.234;19.292;2023-11-21T02:05:48;7.80;;;5.30;;
69126;SDS011;56688;50.234;19.292;2023-11-21T02:08:15;7.30;;;4.80;;
69126;SDS011;56688;50.234;19.292;2023-11-21T02:10:43;8.10;;;4.70;;
69126;SDS011;56688;50.234;19.292;2023-11-21T02:13:10;7.20;;;4.60;;
69126;SDS011;56688;50.234;19.292;2023-11-21T02:15:37;5.50;;;4.20;;
69126;SDS011;56688;50.234;19.292;2023-11-21T02:18:05;8.70;;;4.50;;
69126;SDS011;56688;50.234;19.292;2023-11-21T02:20:33;8.00;;;4.30;;
69126;SDS011;56688;50.234;19.292;2023-11-21T02:23:02;6.50;;;4.10;;
69126;SDS011;56688;50.234;19.292;2023-11-21T02:25:31;7.60;;;3.70;;
69126;SDS011;56688;50.234;19.292;2023-11-21T02:28:01;7.60;;;3.80;;
69126;SDS011;56688;50.234;19.292;2023-11-21T02:30:29;6.40;;;3.80;;
69126;SDS011;56688;50.234;19.292;2023-11-21T02:32:59;6.50;;;4.40;;
69126;SDS011;56688;50.234;19.292;2023-11-21T02:35:27;6.10;;;3.80;;
69126;SDS011;56688;50.234;19.292;2023-11-21T02:37:54;6.80;;;3.60;;
69126;SDS011;56688;50.234;19.292;2023-11-21T02:40:24;8.70;;;4.00;;
69126;SDS011;56688;50.234;19.292;2023-11-21T02:42:53;6.40;;;3.50;;
69126;SDS011;56688;50.234;19.292;2023-11-21T02:45:20;6.30;;;3.70;;
69126;SDS011;56688;50.234;19.292;2023-11-21T02:47:50;7.40;;;4.00;;
69126;SDS011;56688;50.234;19.292;2023-11-21T02:50:17;5.70;;;4.10;;
69126;SDS011;56688;50.234;19.292;2023-11-21T02:52:45;5.30;;;3.60;;
69126;SDS011;56688;50.234;19.292;2023-11-21T02:55:13;6.90;;;4.10;;
69126;SDS011;56688;50.234;19.292;2023-11-21T02:57:40;5.70;;;3.90;;
69126;SDS011;56688;50.234;19.292;2023-11-21T03:00:08;7.10;;;4.80;;
69126;SDS011;56688;50.234;19.292;2023-11-21T03:02:37;7.20;;;4.30;;
69126;SDS011;56688;50.234;19.292;2023-11-21T03:05:07;9.60;;;4.90;;
69126;SDS011;56688;50.234;19.292;2023-11-21T03:07:37;9.90;;;5.30;;
69126;SDS011;56688;50.234;19.292;2023-11-21T03:10:05;9.90;;;5.70;;
69126;SDS011;56688;50.234;19.292;2023-11-21T03:12:37;6.60;;;4.80;;
69126;SDS011;56688;50.234;19.292;2023-11-21T03:15:05;10.50;;;5.10;;
69126;SDS011;56688;50.234;19.292;2023-11-21T03:17:33;8.20;;;5.40;;
69126;SDS011;56688;50.234;19.292;2023-11-21T03:20:02;9.50;;;5.50;;
69126;SDS011;56688;50.234;19.292;2023-11-21T03:22:30;8.80;;;4.90;;
69126;SDS011;56688;50.234;19.292;2023-11-21T03:24:58;7.30;;;4.30;;
69126;SDS011;56688;50.234;19.292;2023-11-21T03:27:25;8.60;;;4.60;;
69126;SDS011;56688;50.234;19.292;2023-11-21T03:29:53;7.20;;;4.80;;
69126;SDS011;56688;50.234;19.292;2023-11-21T03:32:21;10.20;;;5.20;;
69126;SDS011;56688;50.234;19.292;2023-11-21T03:34:56;9.90;;;4.10;;
69126;SDS011;56688;50.234;19.292;2023-11-21T03:37:25;7.90;;;5.00;;
69126;SDS011;56688;50.234;19.292;2023-11-21T03:39:55;7.10;;;4.80;;
69126;SDS011;56688;50.234;19.292;2023-11-21T03:42:23;7.40;;;4.40;;
69126;SDS011;56688;50.234;19.292;2023-11-21T03:44:53;8.30;;;4.60;;
69126;SDS011;56688;50.234;19.292;2023-11-21T03:47:20;13.00;;;5.40;;
69126;SDS011;56688;50.234;19.292;2023-11-21T03:49:48;8.00;;;5.20;;
69126;SDS011;56688;50.234;19.292;2023-11-21T03:52:15;9.90;;;5.10;;
69126;SDS011;56688;50.234;19.292;2023-11-21T03:54:42;8.40;;;5.00;;
69126;SDS011;56688;50.234;19.292;2023-11-21T03:57:10;6.40;;;4.60;;
69126;SDS011;56688;50.234;19.292;2023-11-21T03:59:41;8.30;;;4.70;;
69126;SDS011;56688;50.234;19.292;2023-11-21T04:02:08;9.60;;;5.40;;
69126;SDS011;56688;50.234;19.292;2023-11-21T04:04:36;9.70;;;5.00;;
69126;SDS011;56688;50.234;19.292;2023-11-21T04:07:04;8.80;;;5.10;;
69126;SDS011;56688;50.234;19.292;2023-11-21T04:09:31;7.50;;;4.30;;
69126;SDS011;56688;50.234;19.292;2023-11-21T04:11:58;7.20;;;4.50;;
69126;SDS011;56688;50.234;19.292;2023-11-21T04:14:26;7.80;;;4.70;;
69126;SDS011;56688;50.234;19.292;2023-11-21T04:16:53;11.90;;;5.10;;
69126;SDS011;56688;50.234;19.292;2023-11-21T04:19:21;8.40;;;4.70;;
69126;SDS011;56688;50.234;19.292;2023-11-21T04:21:48;8.90;;;4.60;;
69126;SDS011;56688;50.234;19.292;2023-11-21T04:24:15;10.90;;;5.50;;
69126;SDS011;56688;50.234;19.292;2023-11-21T04:26:43;10.30;;;5.00;;
69126;SDS011;56688;50.234;19.292;2023-11-21T04:29:10;10.00;;;5.40;;
69126;SDS011;56688;50.234;19.292;2023-11-21T04:31:37;13.10;;;6.50;;
69126;SDS011;56688;50.234;19.292;2023-11-21T04:34:05;14.00;;;5.90;;
69126;SDS011;56688;50.234;19.292;2023-11-21T04:36:31;7.60;;;4.90;;
69126;SDS011;56688;50.234;19.292;2023-11-21T04:38:58;10.80;;;5.60;;
69126;SDS011;56688;50.234;19.292;2023-11-21T04:41:25;9.70;;;5.70;;
69126;SDS011;56688;50.234;19.292;2023-11-21T04:43:53;9.10;;;5.40;;
69126;SDS011;56688;50.234;19.292;2023-11-21T04:46:19;9.40;;;5.20;;
69126;SDS011;56688;50.234;19.292;2023-11-21T04:48:47;10.40;;;6.10;;
69126;SDS011;56688;50.234;19.292;2023-11-21T04:51:13;9.40;;;5.40;;
69126;SDS011;56688;50.234;19.292;2023-11-21T04:53:40;13.50;;;5.70;;
69126;SDS011;56688;50.234;19.292;2023-11-21T04:56:08;10.00;;;5.50;;
69126;SDS011;56688;50.234;19.292;2023-11-21T04:58:35;11.00;;;6.00;;
69126;SDS011;56688;50.234;19.292;2023-11-21T05:01:02;11.20;;;6.00;;
69126;SDS011;56688;50.234;19.292;2023-11-21T05:03:34;11.30;;;5.90;;
69126;SDS011;56688;50.234;19.292;2023-11-21T05:06:01;11.40;;;6.40;;
69126;SDS011;56688;50.234;19.292;2023-11-21T05:08:29;17.60;;;6.90;;
69126;SDS011;56688;50.234;19.292;2023-11-21T05:10:55;14.50;;;7.00;;
69126;SDS011;56688;50.234;19.292;2023-11-21T05:13:22;13.40;;;7.80;;
69126;SDS011;56688;50.234;19.292;2023-11-21T05:15:54;10.90;;;7.80;;
69126;SDS011;56688;50.234;19.292;2023-11-21T05:18:24;8.80;;;6.60;;
69126;SDS011;56688;50.234;19.292;2023-11-21T05:20:53;8.50;;;5.90;;
69126;SDS011;56688;50.234;19.292;2023-11-21T05:23:21;10.60;;;6.70;;
69126;SDS011;56688;50.234;19.292;2023-11-21T05:25:48;8.00;;;5.80;;
69126;SDS011;56688;50.234;19.292;2023-11-21T05:28:15;11.50;;;5.90;;
69126;SDS011;56688;50.234;19.292;2023-11-21T05:30:42;10.10;;;5.00;;
69126;SDS011;56688;50.234;19.292;2023-11-21T05:33:08;8.60;;;5.30;;
69126;SDS011;56688;50.234;19.292;2023-11-21T05:35:36;11.10;;;6.10;;
69126;SDS011;56688;50.234;19.292;2023-11-21T05:38:03;11.50;;;5.80;;
69126;SDS011;56688;50.234;19.292;2023-11-21T05:40:30;10.60;;;6.00;;
69126;SDS011;56688;50.234;19.292;2023-11-21T05:42:57;8.50;;;6.20;;
69126;SDS011;56688;50.234;19.292;2023-11-21T05:45:23;9.80;;;6.30;;
69126;SDS011;56688;50.234;19.292;2023-11-21T05:47:50;10.80;;;7.00;;
69126;SDS011;56688;50.234;19.292;2023-11-21T05:50:17;8.50;;;6.10;;
69126;SDS011;56688;50.234;19.292;2023-11-21T05:52:45;11.90;;;7.10;;
69126;SDS011;56688;50.234;19.292;2023-11-21T05:55:14;10.30;;;6.30;;
69126;SDS011;56688;50.234;19.292;2023-11-21T05:57:42;13.50;;;7.50;;
69126;SDS011;56688;50.234;19.292;2023-11-21T06:00:11;10.10;;;7.70;;
69126;SDS011;56688;50.234;19.292;2023-11-21T06:02:48;13.60;;;9.90;;
69126;SDS011;56688;50.234;19.292;2023-11-21T06:05:19;11.80;;;8.20;;
69126;SDS011;56688;50.234;19.292;2023-11-21T06:07:51;11.80;;;7.80;;
69126;SDS011;56688;50.234;19.292;2023-11-21T06:10:20;12.60;;;8.10;;
69126;SDS011;56688;50.234;19.292;2023-11-21T06:12:49;11.00;;;6.80;;
69126;SDS011;56688;50.234;19.292;2023-11-21T06:15:16;10.60;;;7.40;;
69126;SDS011;56688;50.234;19.292;2023-11-21T06:17:46;9.90;;;7.10;;
69126;SDS011;56688;50.234;19.292;2023-11-21T06:20:16;10.00;;;7.40;;
69126;SDS011;56688;50.234;19.292;2023-11-21T06:22:45;9.30;;;7.00;;
69126;SDS011;56688;50.234;19.292;2023-11-21T06:25:14;12.30;;;7.00;;
69126;SDS011;56688;50.234;19.292;2023-11-21T06:27:43;12.00;;;7.80;;
69126;SDS011;56688;50.234;19.292;2023-11-21T06:30:11;10.10;;;7.30;;
69126;SDS011;56688;50.234;19.292;2023-11-21T06:32:41;11.20;;;7.10;;
69126;SDS011;56688;50.234;19.292;2023-11-21T06:35:13;10.40;;;7.20;;
69126;SDS011;56688;50.234;19.292;2023-11-21T06:37:40;10.10;;;7.30;;
69126;SDS011;56688;50.234;19.292;2023-11-21T06:40:07;10.60;;;7.30;;
69126;SDS011;56688;50.234;19.292;2023-11-21T06:42:36;14.40;;;8.10;;
69126;SDS011;56688;50.234;19.292;2023-11-21T06:45:05;13.60;;;7.70;;
69126;SDS011;56688;50.234;19.292;2023-11-21T06:47:32;10.70;;;7.40;;
69126;SDS011;56688;50.234;19.292;2023-11-21T06:49:59;12.70;;;7.70;;
69126;SDS011;56688;50.234;19.292;2023-11-21T06:52:27;14.20;;;8.20;;
69126;SDS011;56688;50.234;19.292;2023-11-21T06:54:54;11.00;;;7.70;;
69126;SDS011;56688;50.234;19.292;2023-11-21T06:57:23;7.50;;;5.90;;
69126;SDS011;56688;50.234;19.292;2023-11-21T06:59:50;10.10;;;7.40;;
69126;SDS011;56688;50.234;19.292;2023-11-21T07:02:17;9.70;;;6.30;;
69126;SDS011;56688;50.234;19.292;2023-11-21T07:04:45;10.10;;;6.20;;
69126;SDS011;56688;50.234;19.292;2023-11-21T07:07:12;9.00;;;6.70;;
69126;SDS011;56688;50.234;19.292;2023-11-21T07:09:39;9.80;;;5.70;;
69126;SDS011;56688;50.234;19.292;2023-11-21T07:12:06;10.70;;;6.60;;
69126;SDS011;56688;50.234;19.292;2023-11-21T07:14:34;11.00;;;6.50;;
69126;SDS011;56688;50.234;19.292;2023-11-21T07:17:01;13.00;;;7.30;;
69126;SDS011;56688;50.234;19.292;2023-11-21T07:19:29;9.70;;;7.10;;
69126;SDS011;56688;50.234;19.292;2023-11-21T07:21:57;10.60;;;7.90;;
69126;SDS011;56688;50.234;19.292;2023-11-21T07:24:24;11.60;;;7.90;;
69126;SDS011;56688;50.234;19.292;2023-11-21T07:26:53;12.30;;;8.80;;
69126;SDS011;56688;50.234;19.292;2023-11-21T07:29:23;14.70;;;10.00;;
69126;SDS011;56688;50.234;19.292;2023-11-21T07:31:52;15.80;;;11.30;;
69126;SDS011;56688;50.234;19.292;2023-11-21T07:34:20;17.50;;;11.40;;
69126;SDS011;56688;50.234;19.292;2023-11-21T07:36:49;18.50;;;12.40;;
69126;SDS011;56688;50.234;19.292;2023-11-21T07:39:16;16.00;;;11.70;;
69126;SDS011;56688;50.234;19.292;2023-11-21T07:41:43;20.80;;;12.90;;
69126;SDS011;56688;50.234;19.292;2023-11-21T07:44:16;23.00;;;15.30;;
69126;SDS011;56688;50.234;19.292;2023-11-21T07:46:44;19.40;;;12.80;;
69126;SDS011;56688;50.234;19.292;2023-11-21T07:49:11;17.30;;;11.50;;
69126;SDS011;56688;50.234;19.292;2023-11-21T07:51:43;19.40;;;12.20;;
69126;SDS011;56688;50.234;19.292;2023-11-21T07:54:10;16.40;;;11.60;;
69126;SDS011;56688;50.234;19.292;2023-11-21T07:56:37;18.10;;;11.80;;
69126;SDS011;56688;50.234;19.292;2023-11-21T07:59:05;16.40;;;11.30;;
69126;SDS011;56688;50.234;19.292;2023-11-21T08:01:32;16.70;;;11.30;;
69126;SDS011;56688;50.234;19.292;2023-11-21T08:03:59;18.50;;;12.20;;
69126;SDS011;56688;50.234;19.292;2023-11-21T08:06:31;17.30;;;12.30;;
69126;SDS011;56688;50.234;19.292;2023-11-21T08:08:58;15.90;;;10.60;;
69126;SDS011;56688;50.234;19.292;2023-11-21T08:11:25;19.60;;;12.80;;
69126;SDS011;56688;50.234;19.292;2023-11-21T08:13:53;22.10;;;12.80;;
69126;SDS011;56688;50.234;19.292;2023-11-21T08:16:21;20.40;;;13.40;;
69126;SDS011;56688;50.234;19.292;2023-11-21T08:18:51;20.00;;;13.10;;
69126;SDS011;56688;50.234;19.292;2023-11-21T08:21:18;22.20;;;13.90;;
69126;SDS011;56688;50.234;19.292;2023-11-21T08:23:46;23.90;;;14.30;;
69126;SDS011;56688;50.234;19.292;2023-11-21T08:26:15;18.70;;;13.10;;
69126;SDS011;56688;50.234;19.292;2023-11-21T08:28:45;21.50;;;14.60;;
69126;SDS011;56688;50.234;19.292;2023-11-21T08:31:14;21.50;;;13.80;;
69126;SDS011;56688;50.234;19.292;2023-11-21T08:33:41;22.30;;;14.00;;
69126;SDS011;56688;50.234;19.292;2023-11-21T08:36:09;24.20;;;15.70;;
69126;SDS011;56688;50.234;19.292;2023-11-21T08:38:39;26.00;;;17.90;;
69126;SDS011;56688;50.234;19.292;2023-11-21T08:41:06;26.60;;;15.00;;
69126;SDS011;56688;50.234;19.292;2023-11-21T08:43:35;24.70;;;15.90;;
69126;SDS011;56688;50.234;19.292;2023-11-21T08:46:02;27.70;;;18.20;;
69126;SDS011;56688;50.234;19.292;2023-11-21T08:48:29;25.50;;;19.40;;
69126;SDS011;56688;50.234;19.292;2023-11-21T08:50:56;32.50;;;20.00;;
69126;SDS011;56688;50.234;19.292;2023-11-21T08:53:23;27.60;;;19.60;;
69126;SDS011;56688;50.234;19.292;2023-11-21T08:55:52;26.80;;;17.80;;
69126;SDS011;56688;50.234;19.292;2023-11-21T08:58:20;28.00;;;15.30;;
69126;SDS011;56688;50.234;19.292;2023-11-21T09:00:48;24.70;;;13.40;;
69126;SDS011;56688;50.234;19.292;2023-11-21T09:03:15;19.60;;;13.10;;
69126;SDS011;56688;50.234;19.292;2023-11-21T09:05:42;18.20;;;12.50;;
69126;SDS011;56688;50.234;19.292;2023-11-21T09:08:09;18.80;;;11.90;;
69126;SDS011;56688;50.234;19.292;2023-11-21T09:10:35;17.70;;;11.50;;
69126;SDS011;56688;50.234;19.292;2023-11-21T09:13:03;15.10;;;9.90;;
69126;SDS011;56688;50.234;19.292;2023-11-21T09:15:30;17.30;;;10.40;;
69126;SDS011;56688;50.234;19.292;2023-11-21T09:17:57;20.10;;;10.70;;
69126;SDS011;56688;50.234;19.292;2023-11-21T09:20:24;18.30;;;12.10;;
69126;SDS011;56688;50.234;19.292;2023-11-21T09:22:51;22.70;;;15.00;;
69126;SDS011;56688;50.234;19.292;2023-11-21T09:25:18;25.60;;;14.40;;
69126;SDS011;56688;50.234;19.292;2023-11-21T09:27:45;27.00;;;16.10;;
69126;SDS011;56688;50.234;19.292;2023-11-21T09:30:12;26.30;;;15.70;;
69126;SDS011;56688;50.234;19.292;2023-11-21T09:32:41;27.90;;;16.10;;
69126;SDS011;56688;50.234;19.292;2023-11-21T09:35:08;19.10;;;12.40;;
69126;SDS011;56688;50.234;19.292;2023-11-21T09:37:35;20.30;;;13.10;;
69126;SDS011;56688;50.234;19.292;2023-11-21T09:40:05;23.60;;;14.60;;
69126;SDS011;56688;50.234;19.292;2023-11-21T09:42:40;21.90;;;14.90;;
69126;SDS011;56688;50.234;19.292;2023-11-21T09:45:17;23.40;;;14.70;;
69126;SDS011;56688;50.234;19.292;2023-11-21T09:47:47;22.70;;;13.90;;
69126;SDS011;56688;50.234;19.292;2023-11-21T09:50:16;23.40;;;15.60;;
69126;SDS011;56688;50.234;19.292;2023-11-21T09:55:34;22.40;;;12.70;;
69126;SDS011;56688;50.234;19.292;2023-11-21T09:58:03;21.90;;;13.90;;
69126;SDS011;56688;50.234;19.292;2023-11-21T10:00:34;23.30;;;14.50;;
69126;SDS011;56688;50.234;19.292;2023-11-21T10:03:01;22.90;;;15.80;;
69126;SDS011;56688;50.234;19.292;2023-11-21T10:05:29;23.80;;;15.00;;
69126;SDS011;56688;50.234;19.292;2023-11-21T10:08:01;26.50;;;12.90;;
69126;SDS011;56688;50.234;19.292;2023-11-21T10:10:30;21.10;;;13.10;;
69126;SDS011;56688;50.234;19.292;2023-11-21T10:13:01;20.40;;;14.00;;
69126;SDS011;56688;50.234;19.292;2023-11-21T10:15:33;18.70;;;12.50;;
69126;SDS011;56688;50.234;19.292;2023-11-21T10:18:03;18.00;;;12.40;;
69126;SDS011;56688;50.234;19.292;2023-11-21T10:20:31;21.70;;;12.50;;
69126;SDS011;56688;50.234;19.292;2023-11-21T10:23:00;19.80;;;14.00;;
69126;SDS011;56688;50.234;19.292;2023-11-21T10:25:29;14.90;;;11.10;;
69126;SDS011;56688;50.234;19.292;2023-11-21T10:27:57;17.50;;;11.40;;
69126;SDS011;56688;50.234;19.292;2023-11-21T10:30:29;15.10;;;9.70;;
69126;SDS011;56688;50.234;19.292;2023-11-21T10:33:00;13.90;;;9.90;;
69126;SDS011;56688;50.234;19.292;2023-11-21T10:38:15;12.00;;;7.40;;
69126;SDS011;56688;50.234;19.292;2023-11-21T10:40:43;12.70;;;7.70;;
69126;SDS011;56688;50.234;19.292;2023-11-21T10:43:13;12.90;;;7.40;;
69126;SDS011;56688;50.234;19.292;2023-11-21T10:45:42;10.40;;;6.40;;
69126;SDS011;56688;50.234;19.292;2023-11-21T10:48:10;15.20;;;7.70;;
69126;SDS011;56688;50.234;19.292;2023-11-21T10:50:42;9.90;;;6.00;;
69126;SDS011;56688;50.234;19.292;2023-11-21T10:53:13;10.80;;;6.10;;
69126;SDS011;56688;50.234;19.292;2023-11-21T10:55:40;10.90;;;5.50;;
69126;SDS011;56688;50.234;19.292;2023-11-21T10:58:08;9.70;;;5.70;;
69126;SDS011;56688;50.234;19.292;2023-11-21T11:00:37;7.50;;;4.70;;
69126;SDS011;56688;50.234;19.292;2023-11-21T11:03:07;7.20;;;4.20;;
69126;SDS011;56688;50.234;19.292;2023-11-21T11:05:43;9.50;;;5.10;;
69126;SDS011;56688;50.234;19.292;2023-11-21T11:08:20;8.70;;;4.80;;
69126;SDS011;56688;50.234;19.292;2023-11-21T11:10:54;6.70;;;4.80;;
69126;SDS011;56688;50.234;19.292;2023-11-21T11:13:22;13.00;;;5.80;;
69126;SDS011;56688;50.234;19.292;2023-11-21T11:15:50;12.20;;;6.10;;
69126;SDS011;56688;50.234;19.292;2023-11-21T11:18:22;11.20;;;6.20;;
69126;SDS011;56688;50.234;19.292;2023-11-21T11:20:50;11.70;;;5.80;;
69126;SDS011;56688;50.234;19.292;2023-11-21T11:29:14;7.90;;;4.70;;
69126;SDS011;56688;50.234;19.292;2023-11-21T11:34:47;8.80;;;5.30;;
69126;SDS011;56688;50.234;19.292;2023-11-21T11:37:20;12.30;;;6.00;;
69126;SDS011;56688;50.234;19.292;2023-11-21T11:39:50;10.10;;;6.30;;
69126;SDS011;56688;50.234;19.292;2023-11-21T11:42:18;11.50;;;7.30;;
69126;SDS011;56688;50.234;19.292;2023-11-21T11:44:46;15.10;;;8.30;;
69126;SDS011;56688;50.234;19.292;2023-11-21T11:47:21;13.40;;;8.00;;
69126;SDS011;56688;50.234;19.292;2023-11-21T11:52:52;11.70;;;7.10;;
69126;SDS011;56688;50.234;19.292;2023-11-21T11:55:22;10.40;;;5.30;;
69126;SDS011;56688;50.234;19.292;2023-11-21T11:57:52;7.60;;;4.90;;
69126;SDS011;56688;50.234;19.292;2023-11-21T12:02:54;7.30;;;5.60;;
69126;SDS011;56688;50.234;19.292;2023-11-21T12:05:23;11.10;;;7.10;;
69126;SDS011;56688;50.234;19.292;2023-11-21T12:07:55;10.30;;;6.50;;
69126;SDS011;56688;50.234;19.292;2023-11-21T12:10:24;10.00;;;7.30;;
69126;SDS011;56688;50.234;19.292;2023-11-21T12:12:55;10.00;;;6.10;;
69126;SDS011;56688;50.234;19.292;2023-11-21T12:15:23;9.90;;;5.90;;
69126;SDS011;56688;50.234;19.292;2023-11-21T12:17:51;7.20;;;4.50;;
69126;SDS011;56688;50.234;19.292;2023-11-21T12:20:19;7.50;;;5.40;;
69126;SDS011;56688;50.234;19.292;2023-11-21T12:22:48;10.10;;;7.20;;
69126;SDS011;56688;50.234;19.292;2023-11-21T12:25:19;12.10;;;7.80;;
69126;SDS011;56688;50.234;19.292;2023-11-21T12:27:50;12.70;;;7.10;;
69126;SDS011;56688;50.234;19.292;2023-11-21T12:30:19;12.40;;;5.50;;
69126;SDS011;56688;50.234;19.292;2023-11-21T12:32:50;8.60;;;5.50;;
69126;SDS011;56688;50.234;19.292;2023-11-21T12:35:20;9.70;;;5.00;;
69126;SDS011;56688;50.234;19.292;2023-11-21T12:37:48;9.30;;;6.20;;
69126;SDS011;56688;50.234;19.292;2023-11-21T12:40:16;11.80;;;7.20;;
69126;SDS011;56688;50.234;19.292;2023-11-21T12:42:45;10.20;;;7.40;;
69126;SDS011;56688;50.234;19.292;2023-11-21T12:47:43;13.60;;;7.60;;
69126;SDS011;56688;50.234;19.292;2023-11-21T12:50:12;12.70;;;8.20;;
69126;SDS011;56688;50.234;19.292;2023-11-21T12:52:42;17.20;;;8.70;;
69126;SDS011;56688;50.234;19.292;2023-11-21T12:55:15;13.40;;;7.40;;
69126;SDS011;56688;50.234;19.292;2023-11-21T12:57:44;12.30;;;7.60;;
69126;SDS011;56688;50.234;19.292;2023-11-21T13:00:12;16.80;;;9.40;;
69126;SDS011;56688;50.234;19.292;2023-11-21T13:02:51;15.10;;;9.50;;
69126;SDS011;56688;50.234;19.292;2023-11-21T13:05:24;15.40;;;9.50;;
69126;SDS011;56688;50.234;19.292;2023-11-21T13:07:51;18.90;;;11.50;;
69126;SDS011;56688;50.234;19.292;2023-11-21T13:10:22;17.70;;;10.70;;
69126;SDS011;56688;50.234;19.292;2023-11-21T13:12:52;16.20;;;10.40;;
69126;SDS011;56688;50.234;19.292;2023-11-21T13:15:20;9.80;;;6.90;;
69126;SDS011;56688;50.234;19.292;2023-11-21T13:17:47;6.40;;;4.30;;
69126;SDS011;56688;50.234;19.292;2023-11-21T13:20:15;6.80;;;3.20;;
69126;SDS011;56688;50.234;19.292;2023-11-21T13:22:45;6.30;;;2.70;;
69126;SDS011;56688;50.234;19.292;2023-11-21T13:25:13;6.10;;;2.70;;
69126;SDS011;56688;50.234;19.292;2023-11-21T13:27:41;4.30;;;2.40;;
69126;SDS011;56688;50.234;19.292;2023-11-21T13:30:10;4.40;;;2.10;;
69126;SDS011;56688;50.234;19.292;2023-11-21T13:32:37;3.80;;;2.10;;
69126;SDS011;56688;50.234;19.292;2023-11-21T13:35:04;3.20;;;2.10;;
69126;SDS011;56688;50.234;19.292;2023-11-21T13:37:34;13.50;;;5.40;;
69126;SDS011;56688;50.234;19.292;2023-11-21T13:40:01;16.50;;;6.70;;
69126;SDS011;56688;50.234;19.292;2023-11-21T13:42:36;12.60;;;6.00;;
69126;SDS011;56688;50.234;19.292;2023-11-21T13:45:03;19.10;;;7.00;;
69126;SDS011;56688;50.234;19.292;2023-11-21T13:47:32;19.20;;;8.00;;
69126;SDS011;56688;50.234;19.292;2023-11-21T13:50:00;18.50;;;8.00;;
69126;SDS011;56688;50.234;19.292;2023-11-21T13:52:27;19.60;;;8.10;;
69126;SDS011;56688;50.234;19.292;2023-11-21T13:54:56;20.20;;;9.20;;
69126;SDS011;56688;50.234;19.292;2023-11-21T13:57:23;14.70;;;7.20;;
69126;SDS011;56688;50.234;19.292;2023-11-21T13:59:50;18.40;;;7.70;;
69126;SDS011;56688;50.234;19.292;2023-11-21T14:02:18;19.80;;;7.80;;
69126;SDS011;56688;50.234;19.292;2023-11-21T14:04:46;21.20;;;9.20;;
69126;SDS011;56688;50.234;19.292;2023-11-21T14:07:16;19.50;;;7.50;;
69126;SDS011;56688;50.234;19.292;2023-11-21T14:09:58;12.80;;;5.90;;
69126;SDS011;56688;50.234;19.292;2023-11-21T14:12:25;15.60;;;7.00;;
69126;SDS011;56688;50.234;19.292;2023-11-21T14:14:52;16.00;;;7.90;;
69126;SDS011;56688;50.234;19.292;2023-11-21T14:17:20;14.00;;;7.50;;
69126;SDS011;56688;50.234;19.292;2023-11-21T14:19:49;19.70;;;8.00;;
69126;SDS011;56688;50.234;19.292;2023-11-21T14:22:16;12.90;;;6.80;;
69126;SDS011;56688;50.234;19.292;2023-11-21T14:24:43;13.20;;;7.20;;
69126;SDS011;56688;50.234;19.292;2023-11-21T14:27:13;15.50;;;8.10;;
69126;SDS011;56688;50.234;19.292;2023-11-21T14:29:42;16.00;;;7.80;;
69126;SDS011;56688;50.234;19.292;2023-11-21T14:32:11;13.70;;;7.40;;
69126;SDS011;56688;50.234;19.292;2023-11-21T14:34:40;16.00;;;8.00;;
69126;SDS011;56688;50.234;19.292;2023-11-21T14:37:09;14.00;;;7.80;;
69126;SDS011;56688;50.234;19.292;2023-11-21T14:39:40;19.30;;;9.00;;
69126;SDS011;56688;50.234;19.292;2023-11-21T14:42:11;18.60;;;10.10;;
69126;SDS011;56688;50.234;19.292;2023-11-21T14:44:42;16.70;;;9.60;;
69126;SDS011;56688;50.234;19.292;2023-11-21T14:47:09;16.80;;;10.10;;
69126;SDS011;56688;50.234;19.292;2023-11-21T14:49:42;16.70;;;9.90;;
69126;SDS011;56688;50.234;19.292;2023-11-21T14:52:25;20.20;;;11.50;;